createdAt,value
2022-09-17T00:01:07.311Z,1.00
2022-09-17T00:03:35.048Z,1.00
2022-09-17T00:06:04.774Z,1.00
2022-09-17T00:08:32.708Z,1.00
2022-09-17T00:11:05.656Z,1.00
2022-09-17T00:13:32.268Z,1.00
2022-09-17T00:15:58.895Z,1.00
2022-09-17T00:18:25.596Z,1.00
2022-09-17T00:20:52.267Z,1.00
2022-09-17T00:23:18.916Z,1.00
2022-09-17T00:25:46.156Z,1.00
2022-09-17T00:28:23.316Z,1.00
2022-09-17T00:30:50.008Z,1.00
2022-09-17T00:33:17.811Z,1.00
2022-09-17T00:35:44.835Z,1.00
2022-09-17T00:38:11.622Z,1.00
2022-09-17T00:40:38.962Z,1.00
2022-09-17T00:43:12.215Z,1.00
2022-09-17T00:45:40.034Z,1.00
2022-09-17T00:48:07.299Z,1.00
2022-09-17T00:50:41.421Z,1.00
2022-09-17T00:53:15.540Z,1.00
2022-09-17T00:55:48.596Z,1.00
2022-09-17T00:58:18.597Z,1.00
2022-09-17T01:00:47.254Z,1.00
2022-09-17T01:03:14.649Z,1.00
2022-09-17T01:06:11.389Z,1.00
2022-09-17T01:08:52.110Z,99.90
2022-09-17T01:11:29.424Z,99.90
2022-09-17T01:14:33.743Z,99.90
2022-09-17T01:17:29.909Z,99.90
2022-09-17T01:20:38.952Z,99.90
2022-09-17T01:23:48.222Z,99.90
2022-09-17T01:26:47.226Z,99.90
2022-09-17T01:29:55.491Z,99.90
2022-09-17T01:32:46.440Z,99.90
2022-09-17T01:35:25.036Z,99.90
2022-09-17T01:38:10.740Z,99.90
2022-09-17T01:41:08.754Z,99.90
2022-09-17T01:43:45.583Z,99.90
2022-09-17T01:46:24.700Z,99.90
2022-09-17T01:48:56.698Z,99.90
2022-09-17T01:51:24.076Z,99.90
2022-09-17T01:54:00.458Z,99.90
2022-09-17T01:56:33.837Z,99.90
2022-09-17T01:59:23.201Z,99.90
2022-09-17T02:01:54.902Z,99.90
2022-09-17T02:04:41.142Z,99.90
2022-09-17T02:07:16.068Z,99.90
2022-09-17T02:10:03.949Z,99.90
2022-09-17T02:12:40.962Z,99.90
2022-09-17T02:15:18.667Z,99.90
2022-09-17T02:17:52.097Z,99.90
2022-09-17T02:20:23.017Z,99.90
2022-09-17T02:22:57.729Z,99.90
2022-09-17T02:25:35.580Z,99.90
2022-09-17T02:28:14.822Z,99.90
2022-09-17T02:30:42.222Z,99.90
2022-09-17T02:33:12.701Z,99.90
2022-09-17T02:35:39.581Z,99.90
2022-09-17T02:38:06.280Z,99.90
2022-09-17T02:40:39.608Z,99.90
2022-09-17T02:43:43.845Z,99.90
2022-09-17T02:46:32.556Z,99.90
2022-09-17T02:49:09.330Z,99.90
2022-09-17T02:51:47.959Z,99.90
2022-09-17T02:54:54.297Z,99.90
2022-09-17T02:57:27.725Z,99.90
2022-09-17T03:00:07.467Z,99.90
2022-09-17T03:02:43.737Z,99.90
2022-09-17T03:05:11.825Z,99.90
2022-09-17T03:07:38.982Z,99.90
2022-09-17T03:10:06.187Z,99.90
2022-09-17T03:12:33.015Z,99.90
2022-09-17T03:14:59.627Z,99.90
2022-09-17T03:17:26.295Z,99.90
2022-09-17T03:19:53.052Z,99.90
2022-09-17T03:22:19.679Z,99.90
2022-09-17T03:24:46.533Z,99.90
2022-09-17T03:27:13.158Z,99.90
2022-09-17T03:29:39.864Z,99.90
2022-09-17T03:32:06.899Z,99.90
2022-09-17T03:34:33.572Z,99.90
2022-09-17T03:37:00.441Z,94.60
2022-09-17T03:39:27.134Z,87.90
2022-09-17T03:41:53.788Z,56.10
2022-09-17T03:44:22.847Z,52.90
2022-09-17T03:46:50.502Z,30.40
2022-09-17T03:49:17.167Z,33.00
2022-09-17T03:51:43.870Z,23.70
2022-09-17T03:54:10.614Z,1.20
2022-09-17T03:56:37.268Z,1.00
2022-09-17T03:59:04.080Z,1.00
2022-09-17T04:01:30.750Z,1.00
2022-09-17T04:03:57.490Z,1.00
2022-09-17T04:06:24.475Z,1.00
2022-09-17T04:08:51.244Z,1.00
2022-09-17T04:11:17.861Z,1.00
2022-09-17T04:13:44.464Z,1.00
2022-09-17T04:16:11.370Z,1.00
2022-09-17T04:18:38.520Z,1.00
2022-09-17T04:21:05.342Z,1.00
2022-09-17T04:23:32.034Z,1.00
2022-09-17T04:25:58.645Z,1.00
2022-09-17T04:28:25.562Z,1.00
2022-09-17T04:30:52.372Z,1.00
2022-09-17T04:33:19.042Z,1.00
2022-09-17T04:35:45.688Z,1.00
2022-09-17T04:38:18.200Z,1.00
2022-09-17T04:40:46.419Z,1.00
2022-09-17T04:43:13.794Z,1.00
2022-09-17T04:45:40.840Z,1.00
2022-09-17T04:48:07.487Z,1.00
2022-09-17T04:50:34.178Z,1.00
2022-09-17T04:53:00.872Z,1.00
2022-09-17T04:55:27.704Z,1.00
2022-09-17T04:57:54.749Z,1.00
2022-09-17T05:00:22.832Z,1.00
2022-09-17T05:02:51.356Z,1.00
2022-09-17T05:05:19.219Z,1.00
2022-09-17T05:07:49.360Z,1.00
2022-09-17T05:10:18.172Z,1.00
2022-09-17T05:12:53.033Z,1.00
2022-09-17T05:15:22.295Z,1.00
2022-09-17T05:17:49.011Z,1.00
2022-09-17T05:20:16.527Z,1.00
2022-09-17T05:22:47.379Z,1.00
2022-09-17T05:25:15.833Z,1.00
2022-09-17T05:27:42.974Z,1.00
2022-09-17T05:30:10.376Z,1.00
2022-09-17T05:32:37.609Z,1.00
2022-09-17T05:35:06.010Z,1.00
2022-09-17T05:37:33.016Z,1.00
2022-09-17T05:39:59.778Z,1.00
2022-09-17T05:42:26.595Z,1.00
2022-09-17T05:44:53.263Z,1.00
2022-09-17T05:47:20.015Z,1.00
2022-09-17T05:49:46.694Z,1.00
2022-09-17T05:52:13.331Z,1.00
2022-09-17T05:54:40.004Z,1.00
2022-09-17T05:57:06.681Z,1.00
2022-09-17T05:59:33.481Z,1.00
2022-09-17T06:02:00.191Z,1.00
2022-09-17T06:04:28.235Z,1.00
2022-09-17T06:06:56.235Z,1.00
2022-09-17T06:09:23.070Z,1.00
2022-09-17T06:11:49.791Z,99.90
2022-09-17T06:14:16.518Z,99.90
2022-09-17T06:16:43.208Z,99.90
2022-09-17T06:19:10.157Z,99.90
2022-09-17T06:21:36.795Z,99.90
2022-09-17T06:24:03.656Z,99.90
2022-09-17T06:26:30.272Z,99.90
2022-09-17T06:28:59.822Z,99.90
2022-09-17T06:31:26.590Z,99.90
2022-09-17T06:33:54.183Z,99.90
2022-09-17T06:36:20.949Z,99.90
2022-09-17T06:38:47.589Z,99.90
2022-09-17T06:41:14.973Z,99.90
2022-09-17T06:43:41.591Z,99.90
2022-09-17T06:46:10.106Z,99.90
2022-09-17T06:48:38.334Z,96.20
2022-09-17T06:51:08.493Z,97.50
2022-09-17T06:53:37.283Z,91.80
2022-09-17T06:56:06.726Z,92.60
2022-09-17T06:58:37.284Z,99.90
2022-09-17T07:01:05.536Z,99.90
2022-09-17T07:03:33.123Z,99.90
2022-09-17T07:05:59.840Z,99.90
2022-09-17T07:08:26.487Z,99.90
2022-09-17T07:10:59.227Z,99.90
2022-09-17T07:13:26.508Z,99.90
2022-09-17T07:15:59.171Z,92.50
2022-09-17T07:18:26.443Z,99.90
2022-09-17T07:20:55.156Z,99.90
2022-09-17T07:23:27.767Z,99.90
2022-09-17T07:25:56.849Z,99.90
2022-09-17T07:28:27.587Z,99.30
2022-09-17T07:30:57.298Z,78.90
2022-09-17T07:33:26.634Z,57.90
2022-09-17T07:35:58.668Z,41.10
2022-09-17T07:38:28.328Z,21.20
2022-09-17T07:40:58.150Z,24.30
2022-09-17T07:43:26.481Z,7.00
2022-09-17T07:45:54.132Z,4.10
2022-09-17T07:48:21.032Z,1.00
2022-09-17T07:50:47.804Z,7.50
2022-09-17T07:53:14.651Z,1.00
2022-09-17T07:55:41.367Z,1.00
2022-09-17T07:58:08.626Z,1.00
2022-09-17T08:00:35.320Z,1.00
2022-09-17T08:03:02.021Z,1.00
2022-09-17T08:05:28.699Z,1.00
2022-09-17T08:07:55.788Z,1.00
2022-09-17T08:10:23.168Z,1.00
2022-09-17T08:12:50.576Z,1.00
2022-09-17T08:15:18.355Z,1.00
2022-09-17T08:17:45.891Z,1.00
2022-09-17T08:20:13.476Z,1.00
2022-09-17T08:22:40.591Z,1.00
2022-09-17T08:25:08.087Z,1.00
2022-09-17T08:27:34.759Z,1.00
2022-09-17T08:30:01.813Z,1.00
2022-09-17T08:32:29.973Z,1.00
2022-09-17T08:34:58.421Z,1.00
2022-09-17T08:37:25.865Z,1.00
2022-09-17T08:39:52.582Z,1.00
2022-09-17T08:42:39.553Z,1.00
2022-09-17T08:45:14.130Z,1.00
2022-09-17T08:47:45.381Z,1.00
2022-09-17T08:50:24.230Z,1.00
2022-09-17T08:52:59.804Z,1.00
2022-09-17T08:55:34.015Z,1.00
2022-09-17T08:58:37.800Z,1.00
2022-09-17T09:01:14.336Z,1.00
2022-09-17T09:04:00.164Z,1.00
2022-09-17T09:06:42.437Z,1.00
2022-09-17T09:09:15.862Z,1.00
2022-09-17T09:11:43.500Z,1.00
2022-09-17T09:14:10.105Z,1.00
2022-09-17T09:16:40.751Z,1.00
2022-09-17T09:19:28.060Z,1.00
2022-09-17T09:22:14.226Z,1.00
2022-09-17T09:24:54.695Z,1.00
2022-09-17T09:27:27.696Z,1.00
2022-09-17T09:30:05.509Z,1.00
2022-09-17T09:32:52.340Z,1.00
2022-09-17T09:35:27.426Z,1.00
2022-09-17T09:38:09.012Z,1.00
2022-09-17T09:41:03.480Z,1.00
2022-09-17T09:43:52.960Z,1.00
2022-09-17T09:46:45.069Z,1.00
2022-09-17T09:49:43.224Z,1.00
2022-09-17T09:52:32.725Z,1.00
2022-09-17T09:55:06.148Z,1.00
2022-09-17T09:57:45.809Z,1.00
2022-09-17T10:00:37.995Z,1.00
2022-09-17T10:03:19.708Z,1.00
2022-09-17T10:06:03.996Z,1.00
2022-09-17T10:08:37.068Z,1.00
2022-09-17T10:11:20.556Z,1.00
2022-09-17T10:13:47.408Z,1.00
2022-09-17T10:16:27.650Z,1.00
2022-09-17T10:19:03.582Z,1.00
2022-09-17T10:21:41.325Z,1.00
2022-09-17T10:24:31.894Z,1.00
2022-09-17T10:27:13.209Z,1.00
2022-09-17T10:29:51.296Z,1.00
2022-09-17T10:32:21.119Z,1.00
2022-09-17T10:34:58.332Z,1.00
2022-09-17T10:37:49.313Z,1.00
2022-09-17T10:40:19.131Z,1.00
2022-09-17T10:42:45.901Z,1.00
2022-09-17T10:45:27.386Z,1.00
2022-09-17T10:47:55.622Z,1.00
2022-09-17T10:50:28.792Z,1.00
2022-09-17T10:52:58.879Z,1.00
2022-09-17T10:55:30.411Z,1.00
2022-09-17T10:58:07.181Z,1.00
2022-09-17T11:01:05.087Z,1.00
2022-09-17T11:04:02.750Z,1.00
2022-09-17T11:06:51.963Z,1.00
2022-09-17T11:09:35.355Z,1.00
2022-09-17T11:12:37.376Z,1.00
2022-09-17T11:15:25.263Z,1.00
2022-09-17T11:18:08.819Z,1.00
2022-09-17T11:20:53.506Z,1.00
2022-09-17T11:24:01.888Z,1.00
2022-09-17T11:26:59.571Z,1.00
2022-09-17T11:29:42.960Z,1.00
2022-09-17T11:32:27.977Z,1.00
2022-09-17T11:35:11.351Z,1.00
2022-09-17T11:37:43.465Z,1.00
2022-09-17T11:40:28.502Z,1.00
2022-09-17T11:43:01.908Z,1.00
2022-09-17T11:45:34.583Z,1.00
2022-09-17T11:48:16.577Z,1.00
2022-09-17T11:50:53.016Z,1.00
2022-09-17T11:53:23.569Z,1.00
2022-09-17T11:56:10.620Z,1.00
2022-09-17T11:58:45.592Z,1.00
2022-09-17T12:01:41.906Z,1.00
2022-09-17T12:04:30.272Z,1.00
2022-09-17T12:07:34.595Z,1.00
2022-09-17T12:10:32.587Z,1.00
2022-09-17T12:13:28.568Z,1.00
2022-09-17T12:16:08.294Z,1.00
2022-09-17T12:18:56.736Z,1.00
2022-09-17T12:21:34.572Z,1.00
2022-09-17T12:24:14.580Z,1.00
2022-09-17T12:26:58.691Z,1.00
2022-09-17T12:29:28.125Z,1.00
2022-09-17T12:32:00.591Z,1.00
2022-09-17T12:34:54.081Z,1.00
2022-09-17T12:37:47.605Z,1.00
2022-09-17T12:40:34.655Z,1.00
2022-09-17T12:43:41.428Z,1.00
2022-09-17T12:46:29.990Z,1.00
2022-09-17T12:49:26.001Z,1.00
2022-09-17T12:52:13.071Z,1.00
2022-09-17T12:55:18.576Z,1.00
2022-09-17T12:58:09.633Z,1.00
2022-09-17T13:00:44.679Z,1.00
2022-09-17T13:03:42.862Z,1.00
2022-09-17T13:06:47.215Z,1.00
2022-09-17T13:09:31.601Z,1.00
2022-09-17T13:12:22.147Z,1.00
2022-09-17T13:15:26.251Z,1.00
2022-09-17T13:18:22.916Z,1.00
2022-09-17T13:21:03.425Z,1.00
2022-09-17T13:23:43.616Z,1.00
2022-09-17T13:26:13.272Z,1.00
2022-09-17T13:28:47.280Z,1.00
2022-09-17T13:31:34.926Z,1.00
2022-09-17T13:34:25.484Z,1.00
2022-09-17T13:36:53.796Z,1.00
2022-09-17T13:39:45.821Z,1.00
2022-09-17T13:42:20.951Z,1.00
2022-09-17T13:45:04.302Z,1.00
2022-09-17T13:47:36.917Z,1.00
2022-09-17T13:50:08.388Z,1.00
2022-09-17T13:52:50.080Z,1.00
2022-09-17T13:55:52.688Z,1.00
2022-09-17T13:58:19.308Z,1.00
2022-09-17T14:01:06.812Z,1.00
2022-09-17T14:03:53.862Z,1.00
2022-09-17T14:06:24.638Z,1.00
2022-09-17T14:08:54.493Z,1.00
2022-09-17T14:11:24.050Z,1.00
2022-09-17T14:13:55.464Z,1.00
2022-09-17T14:16:37.011Z,1.00
2022-09-17T14:19:16.485Z,1.00
2022-09-17T14:22:03.130Z,1.00
2022-09-17T14:24:44.229Z,1.00
2022-09-17T14:27:38.634Z,1.00
2022-09-17T14:30:24.494Z,1.00
2022-09-17T14:33:12.816Z,1.00
2022-09-17T14:35:50.514Z,1.00
2022-09-17T14:38:21.250Z,1.00
2022-09-17T14:40:56.488Z,1.00
2022-09-17T14:43:34.695Z,1.00
2022-09-17T14:46:03.527Z,1.00
2022-09-17T14:48:32.724Z,1.00
2022-09-17T14:51:24.244Z,1.00
2022-09-17T14:54:14.492Z,1.00
2022-09-17T14:57:23.002Z,1.00
2022-09-17T14:59:56.443Z,1.00
2022-09-17T15:02:36.987Z,1.00
2022-09-17T15:05:26.965Z,1.00
2022-09-17T15:08:16.546Z,1.00
2022-09-17T15:10:50.157Z,1.00
2022-09-17T15:13:25.296Z,1.00
2022-09-17T15:15:56.192Z,1.00
2022-09-17T15:18:32.688Z,1.00
2022-09-17T15:21:02.204Z,1.00
2022-09-17T15:23:32.917Z,1.00
2022-09-17T15:26:01.155Z,1.00
2022-09-17T15:28:41.479Z,1.00
2022-09-17T15:31:17.795Z,1.00
2022-09-17T15:33:45.612Z,1.00
2022-09-17T15:36:21.924Z,1.00
2022-09-17T15:38:49.970Z,1.00
2022-09-17T15:41:29.542Z,1.00
2022-09-17T15:44:31.779Z,1.00
2022-09-17T15:47:37.868Z,1.00
2022-09-17T15:50:15.140Z,1.00
2022-09-17T15:52:42.378Z,1.00
2022-09-17T15:55:31.424Z,1.00
2022-09-17T15:57:59.790Z,1.00
2022-09-17T16:00:26.938Z,1.00
2022-09-17T16:02:54.760Z,1.00
2022-09-17T16:05:24.279Z,1.00
2022-09-17T16:07:51.561Z,1.00
2022-09-17T16:10:18.350Z,1.00
2022-09-17T16:12:45.160Z,1.00
2022-09-17T16:15:13.434Z,1.00
2022-09-17T16:17:47.598Z,1.00
2022-09-17T16:20:21.972Z,1.00
2022-09-17T16:22:49.566Z,1.00
2022-09-17T16:25:17.969Z,1.00
2022-09-17T16:27:49.439Z,1.00
2022-09-17T16:30:19.159Z,1.00
2022-09-17T16:32:46.581Z,1.00
2022-09-17T16:35:17.400Z,1.00
2022-09-17T16:37:47.807Z,1.00
2022-09-17T16:40:14.858Z,1.00
2022-09-17T16:42:41.728Z,1.00
2022-09-17T16:45:09.170Z,1.00
2022-09-17T16:47:41.030Z,1.00
2022-09-17T16:50:11.158Z,1.00
2022-09-17T16:52:38.106Z,1.00
2022-09-17T16:55:06.841Z,1.00
2022-09-17T16:57:34.171Z,1.00
2022-09-17T17:00:01.340Z,1.00
2022-09-17T17:02:28.042Z,1.00
2022-09-17T17:04:54.697Z,1.00
2022-09-17T17:07:21.346Z,1.00
2022-09-17T17:09:48.179Z,1.00
2022-09-17T17:12:14.978Z,1.00
2022-09-17T17:14:41.626Z,1.00
2022-09-17T17:17:08.260Z,1.00
2022-09-17T17:19:35.910Z,1.00
2022-09-17T17:22:02.606Z,1.00
2022-09-17T17:24:29.347Z,1.00
2022-09-17T17:26:55.953Z,1.00
2022-09-17T17:29:22.644Z,1.00
2022-09-17T17:31:49.481Z,1.00
2022-09-17T17:34:16.568Z,1.00
2022-09-17T17:36:43.793Z,1.00
2022-09-17T17:39:10.518Z,1.00
2022-09-17T17:41:37.181Z,1.00
2022-09-17T17:44:03.782Z,1.00
2022-09-17T17:46:30.541Z,1.00
2022-09-17T17:48:58.080Z,1.00
2022-09-17T17:51:25.276Z,1.00
2022-09-17T17:53:51.965Z,1.00
2022-09-17T17:56:19.792Z,1.00
2022-09-17T17:58:46.712Z,1.00
2022-09-17T18:01:16.628Z,1.00
2022-09-17T18:03:43.761Z,1.00
2022-09-17T18:06:10.575Z,1.00
2022-09-17T18:08:38.349Z,1.00
2022-09-17T18:11:07.896Z,1.00
2022-09-17T18:13:35.394Z,1.00
2022-09-17T18:16:03.266Z,1.00
2022-09-17T18:18:58.199Z,1.00
2022-09-17T18:21:25.596Z,1.00
2022-09-17T18:23:52.913Z,1.00
2022-09-17T18:26:22.665Z,1.00
2022-09-17T18:28:49.967Z,1.00
2022-09-17T18:31:22.793Z,1.00
2022-09-17T18:34:01.506Z,1.00
2022-09-17T18:36:30.331Z,1.00
2022-09-17T18:39:24.198Z,1.00
2022-09-17T18:41:48.758Z,1.00
2022-09-17T18:44:15.869Z,1.00
2022-09-17T18:46:42.694Z,1.00
2022-09-17T18:49:09.659Z,1.00
2022-09-17T18:51:37.949Z,1.00
2022-09-17T18:54:04.664Z,1.00
2022-09-17T18:56:35.762Z,1.00
2022-09-17T18:59:07.783Z,1.00
2022-09-17T19:01:35.422Z,1.00
2022-09-17T19:04:02.589Z,1.00
2022-09-17T19:06:31.715Z,1.00
2022-09-17T19:09:03.041Z,1.00
2022-09-17T19:11:30.220Z,1.00
2022-09-17T19:13:57.466Z,1.00
2022-09-17T19:16:24.295Z,1.00
2022-09-17T19:18:51.386Z,1.00
2022-09-17T19:21:22.703Z,1.00
2022-09-17T19:23:51.647Z,1.00
2022-09-17T19:26:20.811Z,1.00
2022-09-17T19:28:48.076Z,1.00
2022-09-17T19:31:16.915Z,1.00
2022-09-17T19:33:44.633Z,1.00
2022-09-17T19:36:14.459Z,1.00
2022-09-17T19:38:41.483Z,1.00
2022-09-17T19:41:12.231Z,1.00
2022-09-17T19:43:39.423Z,1.00
2022-09-17T19:46:08.758Z,1.00
2022-09-17T19:48:38.421Z,1.00
2022-09-17T19:51:05.401Z,1.00
2022-09-17T19:53:32.952Z,1.00
2022-09-17T19:56:02.631Z,1.00
2022-09-17T19:58:29.285Z,1.00
2022-09-17T20:00:56.999Z,1.00
2022-09-17T20:03:24.234Z,1.00
2022-09-17T20:05:57.918Z,1.00
2022-09-17T20:08:25.758Z,1.00
2022-09-17T20:10:54.479Z,1.00
2022-09-17T20:13:22.567Z,1.00
2022-09-17T20:15:49.261Z,1.00
2022-09-17T20:18:18.744Z,1.00
2022-09-17T20:20:49.266Z,1.00
2022-09-17T20:23:15.897Z,1.00
2022-09-17T20:25:44.583Z,1.00
2022-09-17T20:28:11.184Z,1.00
2022-09-17T20:30:37.791Z,1.00
2022-09-17T20:33:04.410Z,1.00
2022-09-17T20:35:31.029Z,1.00
2022-09-17T20:40:44.399Z,1.00
2022-09-17T20:43:11.132Z,1.00
2022-09-17T20:45:37.743Z,1.00
2022-09-17T20:48:04.370Z,3.00
2022-09-17T20:50:30.990Z,6.40
2022-09-17T20:52:57.703Z,11.30
2022-09-17T20:55:24.408Z,14.50
2022-09-17T20:57:53.680Z,18.80
2022-09-17T21:00:21.262Z,24.30
2022-09-17T21:02:56.289Z,28.30
2022-09-17T21:05:22.987Z,30.20
2022-09-17T21:07:49.599Z,35.00
2022-09-17T21:10:16.342Z,36.40
2022-09-17T21:12:42.996Z,38.30
2022-09-17T21:15:09.937Z,40.40
2022-09-17T21:17:40.555Z,43.70
2022-09-17T21:20:07.772Z,46.40
2022-09-17T21:22:34.375Z,49.70
2022-09-17T21:25:01.403Z,53.10
2022-09-17T21:27:31.533Z,56.50
2022-09-17T21:29:58.453Z,60.60
2022-09-17T21:32:25.104Z,61.60
2022-09-17T21:34:51.785Z,61.20
2022-09-17T21:37:18.510Z,63.60
2022-09-17T21:39:45.118Z,66.00
2022-09-17T21:42:11.762Z,68.20
2022-09-17T21:44:38.422Z,68.00
2022-09-17T21:47:08.017Z,70.70
2022-09-17T21:49:39.191Z,72.40
2022-09-17T21:52:05.960Z,76.10
2022-09-17T21:54:32.627Z,79.00
2022-09-17T21:56:59.910Z,82.20
2022-09-17T21:59:27.205Z,87.30
2022-09-17T22:01:53.893Z,90.70
2022-09-17T22:04:22.186Z,92.70
2022-09-17T22:06:49.782Z,94.20
2022-09-17T22:09:23.150Z,96.60
2022-09-17T22:11:50.337Z,99.30
2022-09-17T22:14:19.602Z,99.90
2022-09-17T22:16:48.915Z,99.90
2022-09-17T22:19:17.876Z,99.90
2022-09-17T22:21:47.809Z,99.90
2022-09-17T22:24:15.988Z,99.90
2022-09-17T22:26:45.837Z,99.90
2022-09-17T22:29:15.097Z,99.90
2022-09-17T22:31:42.397Z,99.90
2022-09-17T22:34:11.044Z,99.90
2022-09-17T22:36:38.152Z,99.90
2022-09-17T22:39:05.803Z,99.90
2022-09-17T22:41:36.032Z,99.90
2022-09-17T22:44:07.618Z,99.90
2022-09-17T22:46:36.516Z,99.90
2022-09-17T22:49:03.551Z,99.90
2022-09-17T22:51:30.882Z,99.90
2022-09-17T22:53:58.727Z,99.90
2022-09-17T22:56:27.109Z,99.90
2022-09-17T22:58:53.878Z,99.90
2022-09-17T23:01:23.581Z,99.90
2022-09-17T23:03:53.124Z,99.90
2022-09-17T23:06:25.916Z,99.90
2022-09-17T23:08:53.486Z,99.90
2022-09-17T23:11:24.836Z,99.90
2022-09-17T23:13:52.317Z,99.90
2022-09-17T23:16:19.784Z,99.90
2022-09-17T23:18:46.714Z,99.90
2022-09-17T23:21:16.444Z,99.90
2022-09-17T23:23:45.561Z,99.90
2022-09-17T23:26:23.827Z,99.90
2022-09-17T23:28:51.384Z,99.90
2022-09-17T23:31:21.673Z,99.90
2022-09-17T23:33:49.306Z,99.90
2022-09-17T23:36:24.664Z,99.90
2022-09-17T23:38:52.248Z,99.90
2022-09-17T23:41:23.072Z,99.90
2022-09-17T23:43:52.300Z,99.90
2022-09-17T23:46:20.571Z,99.90
2022-09-17T23:48:47.768Z,99.90
2022-09-17T23:51:16.317Z,99.90
2022-09-17T23:53:43.484Z,99.90
2022-09-17T23:56:13.179Z,99.90
2022-09-17T23:58:40.119Z,99.90
